Time;durP1;ratioP1;P1;durP2;ratioP2;P2;SDS_P1;SDS_P2;PMS_P1;PMS_P2;Temp;Humidity;BMP_temperature;BMP_pressure;BME280_temperature;BME280_humidity;BME280_pressure;Samples;Min_cycle;Max_cycle;Signal;HPM_P1;HPM_P2
2022/04/23 00:02:18;;;;;;;24.00;17.50;;;11.40;99.90;;;;;;4998125;28;89293;-37
2022/04/23 00:04:43;;;;;;;22.85;19.00;;;11.40;99.90;;;;;;4998034;28;90360;-37
2022/04/23 00:07:09;;;;;;;23.30;18.73;;;11.30;99.90;;;;;;4998445;28;91302;-33
2022/04/23 00:09:35;;;;;;;19.45;17.25;;;11.30;99.90;;;;;;4998062;28;89854;-35
2022/04/23 00:12:01;;;;;;;19.98;17.88;;;11.30;99.90;;;;;;4998625;28;88979;-37
2022/04/23 00:14:27;;;;;;;21.90;19.40;;;11.20;99.90;;;;;;4998229;28;89922;-36
2022/04/23 00:16:54;;;;;;;22.83;18.08;;;11.20;99.90;;;;;;4997521;28;90735;-36
2022/04/23 00:19:20;;;;;;;22.45;18.25;;;11.20;99.90;;;;;;5014303;28;91669;-34
2022/04/23 00:21:46;;;;;;;25.42;18.60;;;11.30;99.90;;;;;;4994514;28;89131;-35
2022/04/23 00:24:12;;;;;;;22.42;17.60;;;11.30;99.90;;;;;;4978397;28;90175;-39
2022/04/23 00:26:39;;;;;;;22.27;19.83;;;11.30;99.90;;;;;;4981916;28;89925;-34
2022/04/23 00:29:05;;;;;;;21.17;18.38;;;11.20;99.90;;;;;;4981023;28;89694;-36
2022/04/23 00:34:07;;;;;;;22.13;18.85;;;11.30;99.90;;;;;;4960251;28;90151;-39
2022/04/23 00:36:33;;;;;;;24.92;20.00;;;11.30;99.90;;;;;;4962000;28;90592;-35
2022/04/23 00:38:59;;;;;;;20.73;18.60;;;11.20;99.90;;;;;;4961405;28;90154;-35
2022/04/23 00:44:09;;;;;;;21.73;18.65;;;11.00;99.90;;;;;;4961415;28;90539;-38
2022/04/23 00:46:35;;;;;;;21.67;19.20;;;10.90;99.90;;;;;;4961245;28;90787;-37
2022/04/23 00:49:02;;;;;;;22.08;19.15;;;10.80;99.90;;;;;;4961238;28;89672;-35
2022/04/23 00:51:29;;;;;;;26.33;19.40;;;10.80;99.90;;;;;;4962541;28;88980;-39
2022/04/23 00:53:56;;;;;;;27.25;21.38;;;10.60;99.90;;;;;;4961415;28;89017;-35
2022/04/23 00:56:25;;;;;;;20.25;18.17;;;10.60;99.90;;;;;;4961114;28;89624;-33
2022/04/23 00:58:51;;;;;;;21.92;18.17;;;10.50;99.90;;;;;;4961183;28;89374;-34
2022/04/23 01:01:22;;;;;;;21.25;18.15;;;10.40;99.90;;;;;;4962011;28;87817;-38
2022/04/23 01:03:47;;;;;;;23.17;19.90;;;10.40;99.90;;;;;;4961674;28;90294;-35
2022/04/23 01:06:13;;;;;;;22.80;20.60;;;10.20;99.90;;;;;;4960785;28;90915;-35
2022/04/23 01:08:39;;;;;;;23.27;20.42;;;10.30;99.90;;;;;;4960740;28;91027;-35
2022/04/23 01:11:05;;;;;;;22.75;19.50;;;10.30;99.90;;;;;;4961435;28;89512;-37
2022/04/23 01:13:32;;;;;;;23.20;19.60;;;10.30;99.90;;;;;;4960989;28;90146;-36
2022/04/23 01:16:07;;;;;;;22.95;18.65;;;10.20;99.90;;;;;;4960938;28;89537;-39
2022/04/23 01:18:38;;;;;;;22.65;19.58;;;10.20;99.90;;;;;;4961444;28;89611;-36
2022/04/23 01:21:04;;;;;;;21.13;18.75;;;10.20;99.90;;;;;;4961199;28;88805;-33
2022/04/23 01:23:30;;;;;;;25.38;20.02;;;10.10;99.90;;;;;;4960357;28;90055;-36
2022/04/23 01:25:57;;;;;;;21.90;19.33;;;10.10;99.90;;;;;;4961068;28;89712;-39
2022/04/23 01:28:23;;;;;;;23.73;19.83;;;9.90;99.90;;;;;;4961239;28;89176;-37
2022/04/23 01:30:54;;;;;;;23.90;19.50;;;10.00;99.90;;;;;;4960079;28;90529;-37
2022/04/23 01:33:20;;;;;;;23.67;18.45;;;10.00;99.90;;;;;;4960452;28;89925;-35
2022/04/23 01:35:46;;;;;;;20.65;17.73;;;9.90;99.90;;;;;;4960202;28;89899;-36
2022/04/23 01:38:12;;;;;;;21.98;18.17;;;9.90;99.90;;;;;;4961156;28;89520;-36
2022/04/23 01:40:38;;;;;;;20.08;18.15;;;9.90;99.90;;;;;;4960510;28;90382;-37
2022/04/23 01:43:04;;;;;;;21.15;19.02;;;10.00;99.90;;;;;;4960524;28;89159;-38
2022/04/23 01:45:30;;;;;;;21.23;19.05;;;9.90;99.90;;;;;;4961329;28;90328;-34
2022/04/23 01:47:55;;;;;;;20.38;18.27;;;9.80;99.90;;;;;;4959841;28;89700;-33
2022/04/23 01:50:21;;;;;;;22.92;19.23;;;9.80;99.90;;;;;;4961126;28;90931;-34
2022/04/23 01:52:47;;;;;;;19.80;17.75;;;9.70;99.90;;;;;;4960007;28;90555;-35
2022/04/23 01:55:12;;;;;;;20.88;18.30;;;9.70;99.90;;;;;;4960110;28;90442;-38
2022/04/23 01:57:38;;;;;;;21.05;18.42;;;9.80;99.90;;;;;;4960455;28;90242;-36
2022/04/23 02:00:14;;;;;;;20.58;17.50;;;9.70;99.90;;;;;;4959960;28;89232;-37
2022/04/23 02:02:40;;;;;;;17.80;15.90;;;9.60;99.90;;;;;;4960743;28;89234;-38
2022/04/23 02:05:07;;;;;;;20.60;17.25;;;9.70;99.90;;;;;;4960170;28;89649;-34
2022/04/23 02:07:37;;;;;;;16.38;14.77;;;9.60;99.90;;;;;;4960237;28;88937;-35
2022/04/23 02:10:07;;;;;;;23.67;16.67;;;9.50;99.90;;;;;;4959649;28;90383;-38
2022/04/23 02:12:33;;;;;;;19.35;16.90;;;9.60;99.90;;;;;;4960329;28;92127;-33
2022/04/23 02:15:00;;;;;;;22.65;17.42;;;9.60;99.90;;;;;;4960274;28;89542;-38
2022/04/23 02:17:39;;;;;;;18.85;16.65;;;9.60;99.90;;;;;;4959887;28;89542;-34
2022/04/23 02:20:12;;;;;;;17.25;15.05;;;9.60;99.90;;;;;;4960105;28;89326;-33
2022/04/23 02:22:38;;;;;;;20.17;15.95;;;9.70;99.90;;;;;;4959666;28;90253;-36
2022/04/23 02:25:05;;;;;;;25.65;17.23;;;9.60;99.90;;;;;;4959671;28;89751;-34
2022/04/23 02:28:03;;;;;;;18.33;16.27;;;9.50;99.90;;;;;;4960053;28;89533;-33
2022/04/23 02:30:30;;;;;;;21.23;16.48;;;9.50;99.90;;;;;;4916515;28;89450;-35
2022/04/23 02:32:56;;;;;;;20.80;17.17;;;9.40;99.90;;;;;;4958969;28;90000;-37
2022/04/23 02:35:21;;;;;;;19.55;17.58;;;9.50;99.90;;;;;;4959699;28;89205;-34
2022/04/23 02:37:48;;;;;;;19.27;16.67;;;9.60;99.90;;;;;;4959600;28;89663;-38
2022/04/23 02:40:15;;;;;;;20.45;17.67;;;9.50;99.90;;;;;;4960662;28;88428;-36
2022/04/23 02:42:41;;;;;;;23.33;19.00;;;9.40;99.90;;;;;;4959634;28;91603;-34
2022/04/23 02:45:09;;;;;;;20.67;17.60;;;9.40;99.90;;;;;;4958334;28;90898;-38
2022/04/23 02:47:48;;;;;;;20.17;18.13;;;9.40;99.90;;;;;;4958829;28;90493;-38
2022/04/23 02:50:15;;;;;;;22.35;17.10;;;9.30;99.90;;;;;;4960217;28;89300;-39
2022/04/23 02:52:42;;;;;;;20.15;17.13;;;9.30;99.90;;;;;;4959751;28;90714;-33
2022/04/23 02:55:08;;;;;;;21.50;17.75;;;9.20;99.90;;;;;;4959724;28;90154;-35
2022/04/23 02:57:34;;;;;;;21.42;17.40;;;9.30;99.90;;;;;;4959453;28;89750;-36
2022/04/23 02:59:59;;;;;;;24.92;17.67;;;9.20;99.90;;;;;;4960042;28;89586;-36
2022/04/23 03:02:26;;;;;;;18.75;16.77;;;9.10;99.90;;;;;;4959210;28;89997;-32
2022/04/23 03:04:52;;;;;;;19.58;17.67;;;9.10;99.90;;;;;;4959218;28;89779;-38
2022/04/23 03:07:18;;;;;;;18.75;16.67;;;9.10;99.90;;;;;;4959239;28;95052;-35
2022/04/23 03:09:44;;;;;;;22.90;18.13;;;9.20;99.90;;;;;;4958466;28;89784;-34
2022/04/23 03:12:09;;;;;;;24.60;18.85;;;9.20;99.90;;;;;;4959642;28;90151;-35
2022/04/23 03:14:35;;;;;;;18.92;16.98;;;9.10;99.90;;;;;;4940401;28;89770;-36
2022/04/23 03:17:01;;;;;;;19.27;17.17;;;9.10;99.90;;;;;;4959710;28;93498;-35
2022/04/23 03:19:26;;;;;;;20.77;16.92;;;9.20;99.90;;;;;;4959171;28;88692;-35
2022/04/23 03:21:53;;;;;;;19.80;17.33;;;9.20;99.90;;;;;;4958950;28;89914;-36
2022/04/23 03:24:18;;;;;;;18.52;16.55;;;9.20;99.90;;;;;;4959432;28;89613;-33
2022/04/23 03:26:45;;;;;;;18.67;16.73;;;9.20;99.90;;;;;;4958820;28;94010;-33
2022/04/23 03:29:11;;;;;;;19.27;17.23;;;9.20;99.90;;;;;;4959205;28;89385;-38
2022/04/23 03:31:37;;;;;;;21.48;17.67;;;9.20;99.90;;;;;;4958186;28;90232;-35
2022/04/23 03:34:03;;;;;;;21.08;17.70;;;9.10;99.90;;;;;;4958106;28;90923;-34
2022/04/23 03:36:28;;;;;;;18.70;16.70;;;9.00;99.90;;;;;;4959072;28;90352;-37
2022/04/23 03:38:54;;;;;;;20.17;16.27;;;9.00;99.90;;;;;;4958111;28;89116;-38
2022/04/23 03:41:19;;;;;;;19.25;17.02;;;9.00;99.90;;;;;;4959567;28;90608;-35
2022/04/23 03:43:45;;;;;;;17.92;15.38;;;8.90;99.90;;;;;;4958298;28;90078;-35
2022/04/23 03:46:11;;;;;;;21.90;16.73;;;8.90;99.90;;;;;;4958812;28;89584;-36
2022/04/23 03:48:37;;;;;;;21.70;15.98;;;8.90;99.90;;;;;;4959243;28;89115;-33
2022/04/23 03:51:03;;;;;;;17.95;16.10;;;8.90;99.90;;;;;;4958637;28;90315;-36
2022/04/23 03:53:28;;;;;;;18.67;16.75;;;8.80;99.90;;;;;;4958757;28;89740;-37
2022/04/23 03:55:54;;;;;;;17.23;14.88;;;8.70;99.90;;;;;;4958426;28;89416;-38
2022/04/23 03:58:20;;;;;;;17.67;15.60;;;8.70;99.90;;;;;;4958029;28;90485;-40
2022/04/23 04:00:45;;;;;;;19.63;16.55;;;8.70;99.90;;;;;;4961324;28;90745;-33
2022/04/23 04:03:11;;;;;;;17.42;15.30;;;8.70;99.90;;;;;;4962024;28;90065;-34
2022/04/23 04:05:36;;;;;;;17.73;15.68;;;8.80;99.90;;;;;;4962745;28;92007;-34
2022/04/23 04:08:02;;;;;;;21.25;16.05;;;8.70;99.90;;;;;;4962219;28;88237;-34
2022/04/23 04:10:28;;;;;;;19.48;16.08;;;8.70;99.90;;;;;;4962656;28;90152;-34
2022/04/23 04:12:54;;;;;;;18.75;15.27;;;8.60;99.90;;;;;;4961994;28;90313;-37
2022/04/23 04:15:20;;;;;;;20.83;16.00;;;8.70;99.90;;;;;;4962467;28;89629;-37
2022/04/23 04:17:50;;;;;;;16.45;14.70;;;8.60;99.90;;;;;;4962276;28;88500;-37
2022/04/23 04:20:16;;;;;;;18.75;15.15;;;8.70;99.90;;;;;;4962563;28;90336;-34
2022/04/23 04:22:43;;;;;;;17.83;13.75;;;8.60;99.90;;;;;;4961063;28;90684;-35
2022/04/23 04:25:10;;;;;;;16.80;14.77;;;8.60;99.90;;;;;;4962115;28;89401;-34
2022/04/23 04:27:37;;;;;;;17.42;15.82;;;8.70;99.90;;;;;;4962098;28;88238;-37
2022/04/23 04:30:07;;;;;;;17.08;15.23;;;8.80;99.90;;;;;;4961700;28;90295;-37
2022/04/23 04:32:33;;;;;;;16.83;15.10;;;9.00;99.90;;;;;;4961792;28;91305;-33
2022/04/23 04:34:59;;;;;;;16.55;14.55;;;9.00;99.90;;;;;;4961159;28;89433;-35
2022/04/23 04:37:25;;;;;;;17.85;15.93;;;9.10;99.90;;;;;;4962223;28;90138;-35
2022/04/23 04:39:50;;;;;;;18.38;16.30;;;9.00;99.90;;;;;;4961734;28;90157;-38
2022/04/23 04:42:16;;;;;;;16.00;14.30;;;9.00;99.90;;;;;;4961576;28;89757;-40
2022/04/23 04:44:42;;;;;;;20.08;14.43;;;8.90;99.90;;;;;;4960945;28;89697;-35
2022/04/23 04:47:09;;;;;;;17.25;13.52;;;8.90;99.90;;;;;;4960663;28;89486;-36
2022/04/23 04:49:38;;;;;;;15.88;13.68;;;8.90;99.90;;;;;;4961860;28;90333;-39
2022/04/23 04:52:05;;;;;;;14.23;12.82;;;8.90;99.90;;;;;;4961921;28;89756;-33
2022/04/23 04:54:30;;;;;;;17.95;14.38;;;8.90;99.90;;;;;;4960902;28;90103;-38
2022/04/23 04:56:56;;;;;;;17.40;14.60;;;8.90;99.90;;;;;;4961409;28;88125;-34
2022/04/23 04:59:22;;;;;;;17.92;15.25;;;9.10;99.90;;;;;;4961670;28;90278;-35
2022/04/23 05:01:50;;;;;;;17.27;14.68;;;9.00;99.90;;;;;;4961028;28;89708;-34
2022/04/23 05:04:16;;;;;;;14.03;12.53;;;9.00;99.90;;;;;;4961835;28;89824;-34
2022/04/23 05:06:41;;;;;;;16.48;14.85;;;9.10;99.90;;;;;;4960924;28;87755;-35
2022/04/23 05:09:07;;;;;;;19.92;14.65;;;9.10;99.90;;;;;;4960922;28;90411;-34
2022/04/23 05:11:32;;;;;;;15.57;13.98;;;9.20;99.90;;;;;;4960507;28;95138;-34
2022/04/23 05:13:58;;;;;;;18.63;14.98;;;9.20;99.90;;;;;;4960553;28;90360;-35
2022/04/23 05:16:23;;;;;;;16.55;14.88;;;9.20;99.90;;;;;;4961900;28;89192;-34
2022/04/23 05:18:49;;;;;;;15.90;14.32;;;9.20;99.90;;;;;;4960965;28;90509;-32
2022/04/23 05:21:15;;;;;;;16.77;15.07;;;9.20;99.90;;;;;;4960757;28;93655;-34
2022/04/23 05:23:40;;;;;;;16.40;14.75;;;9.30;99.90;;;;;;4961114;28;89590;-33
2022/04/23 05:26:06;;;;;;;16.35;14.65;;;9.50;99.90;;;;;;4961185;28;88316;-32
2022/04/23 05:28:32;;;;;;;16.33;14.63;;;9.50;99.90;;;;;;4961746;28;90387;-34
2022/04/23 05:30:58;;;;;;;15.82;14.23;;;9.50;99.90;;;;;;4960270;28;89949;-34
2022/04/23 05:33:24;;;;;;;18.40;15.20;;;9.60;99.90;;;;;;4960191;28;90018;-35
2022/04/23 05:35:49;;;;;;;16.45;14.75;;;9.60;99.90;;;;;;4960745;28;89077;-33
2022/04/23 05:38:22;;;;;;;15.18;13.15;;;9.70;99.90;;;;;;4960993;28;91176;-34
2022/04/23 05:40:48;;;;;;;18.65;16.02;;;9.80;99.90;;;;;;4960873;28;91393;-35
2022/04/23 05:43:15;;;;;;;18.75;16.77;;;9.70;99.90;;;;;;4960155;28;89821;-38
2022/04/23 05:45:40;;;;;;;17.42;15.55;;;9.80;99.90;;;;;;4961375;28;89005;-35
2022/04/23 05:48:06;;;;;;;18.65;15.93;;;9.80;99.90;;;;;;4960239;28;90290;-33
2022/04/23 05:50:31;;;;;;;16.83;15.25;;;9.90;99.90;;;;;;4960787;28;89817;-38
2022/04/23 05:52:57;;;;;;;15.48;13.93;;;9.90;99.90;;;;;;4960707;28;89900;-36
2022/04/23 05:55:23;;;;;;;16.67;13.40;;;9.90;99.90;;;;;;4960422;28;89143;-39
2022/04/23 05:57:49;;;;;;;15.70;13.10;;;9.90;99.90;;;;;;4960213;28;90329;-35
2022/04/23 06:00:15;;;;;;;15.73;14.05;;;10.00;99.90;;;;;;4959585;28;89879;-35
2022/04/23 06:02:40;;;;;;;21.45;17.13;;;10.00;99.90;;;;;;4960256;28;90310;-34
2022/04/23 06:05:07;;;;;;;18.50;14.80;;;10.00;99.90;;;;;;4960304;28;89990;-35
2022/04/23 06:07:33;;;;;;;17.17;15.20;;;10.00;99.90;;;;;;4959903;28;90409;-36
2022/04/23 06:10:00;;;;;;;18.65;16.65;;;10.10;99.90;;;;;;4960245;28;90021;-36
2022/04/23 06:12:25;;;;;;;17.83;16.02;;;10.20;99.90;;;;;;4959870;28;92097;-35
2022/04/23 06:14:51;;;;;;;16.50;14.80;;;10.20;99.90;;;;;;4960067;28;89189;-38
2022/04/23 06:17:23;;;;;;;15.77;13.63;;;10.30;99.90;;;;;;4960780;28;90223;-34
2022/04/23 06:19:49;;;;;;;17.38;15.57;;;10.30;99.90;;;;;;4960686;28;90531;-34
2022/04/23 06:22:15;;;;;;;15.43;14.02;;;10.40;99.90;;;;;;4959642;28;89625;-34
2022/04/23 06:24:41;;;;;;;17.75;15.82;;;10.40;99.90;;;;;;4959337;28;90383;-35
2022/04/23 06:27:06;;;;;;;16.67;14.45;;;10.50;99.90;;;;;;4960317;28;90201;-34
2022/04/23 06:29:32;;;;;;;16.95;15.27;;;10.60;99.90;;;;;;4960026;28;89707;-35
2022/04/23 06:31:57;;;;;;;15.25;13.68;;;10.70;99.90;;;;;;4960350;28;90259;-33
2022/04/23 06:34:23;;;;;;;17.15;15.38;;;10.70;99.90;;;;;;4959973;28;89524;-35
2022/04/23 06:36:49;;;;;;;17.90;15.55;;;10.80;99.90;;;;;;4959907;28;90124;-38
2022/04/23 06:39:14;;;;;;;20.02;15.20;;;10.80;99.90;;;;;;4959101;28;93997;-35
2022/04/23 06:41:40;;;;;;;20.50;16.08;;;11.00;99.90;;;;;;4941955;28;89802;-37
2022/04/23 06:44:05;;;;;;;19.02;16.48;;;11.00;99.90;;;;;;4959950;28;90619;-33
2022/04/23 06:46:31;;;;;;;19.17;17.15;;;11.20;99.90;;;;;;4941912;28;91429;-35
2022/04/23 06:48:56;;;;;;;17.65;14.35;;;11.20;99.90;;;;;;4959209;28;90851;-35
2022/04/23 06:51:22;;;;;;;18.25;16.38;;;11.30;99.90;;;;;;4959048;28;90565;-36
2022/04/23 06:53:48;;;;;;;19.98;13.90;;;11.50;99.90;;;;;;4960198;28;88457;-34
2022/04/23 06:56:13;;;;;;;16.85;14.63;;;11.60;99.90;;;;;;4959723;28;90593;-35
2022/04/23 06:58:39;;;;;;;17.17;15.35;;;11.60;99.90;;;;;;4959762;28;89930;-34
2022/04/23 07:01:05;;;;;;;18.08;15.25;;;11.70;99.90;;;;;;4960246;28;90181;-34
2022/04/23 07:03:30;;;;;;;23.08;15.45;;;12.00;99.90;;;;;;4959447;28;88858;-33
2022/04/23 07:05:56;;;;;;;22.60;15.63;;;12.20;99.90;;;;;;4959454;28;91326;-35
2022/04/23 07:08:22;;;;;;;14.63;13.20;;;12.40;99.90;;;;;;4959051;28;88738;-38
2022/04/23 07:10:48;;;;;;;16.55;14.55;;;12.50;99.90;;;;;;4959367;28;89690;-36
2022/04/23 07:13:15;;;;;;;15.32;13.00;;;12.50;99.90;;;;;;4941452;28;90296;-34
2022/04/23 07:15:41;;;;;;;18.08;14.32;;;12.60;99.90;;;;;;4958481;28;90430;-37
2022/04/23 07:18:08;;;;;;;13.68;12.25;;;12.80;99.90;;;;;;4959089;28;89296;-39
2022/04/23 07:20:34;;;;;;;18.73;13.55;;;12.80;99.90;;;;;;4959864;28;89407;-34
2022/04/23 07:25:44;;;;;;;16.20;14.55;;;13.10;99.90;;;;;;4959326;28;91232;-34
2022/04/23 07:28:10;;;;;;;11.48;10.32;;;13.30;99.90;;;;;;4959227;28;89658;-34
2022/04/23 07:30:36;;;;;;;14.07;11.57;;;13.40;99.90;;;;;;4959331;28;89699;-39
2022/04/23 07:33:03;;;;;;;17.75;13.15;;;13.30;99.90;;;;;;4958666;28;89614;-36
2022/04/23 07:38:17;;;;;;;13.15;11.48;;;13.60;99.90;;;;;;4957483;28;90577;-38
2022/04/23 07:40:51;;;;;;;18.23;10.63;;;13.50;97.10;;;;;;4967726;28;90027;-39
2022/04/23 07:43:17;;;;;;;13.95;12.45;;;13.50;95.90;;;;;;4975842;28;89657;-35
2022/04/23 07:45:45;;;;;;;11.02;9.73;;;13.50;94.20;;;;;;4975987;28;90218;-38
2022/04/23 07:48:13;;;;;;;15.48;12.10;;;13.70;96.30;;;;;;4977948;28;90236;-37
2022/04/23 07:50:40;;;;;;;13.77;12.35;;;13.70;91.00;;;;;;4976754;28;89537;-37
2022/04/23 07:53:07;;;;;;;12.43;11.32;;;13.80;93.70;;;;;;4976521;28;88377;-38
2022/04/23 07:55:35;;;;;;;15.20;12.80;;;13.80;93.00;;;;;;4976214;28;90339;-37
2022/04/23 07:58:04;;;;;;;;;;;14.00;91.60;;;;;;4977704;28;89468;-36
2022/04/23 08:00:31;;;;;;;16.83;12.27;;;14.00;87.30;;;;;;4979395;28;89261;-36
2022/04/23 08:02:57;;;;;;;13.30;10.80;;;13.90;87.40;;;;;;4976933;28;90725;-33
2022/04/23 08:05:23;;;;;;;25.30;13.30;;;14.10;85.30;;;;;;4975897;28;90356;-35
2022/04/23 08:07:48;;;;;;;15.95;11.82;;;14.00;85.50;;;;;;4976091;28;89752;-34
2022/04/23 08:10:14;;;;;;;18.42;12.55;;;14.20;83.80;;;;;;4976216;28;90169;-35
2022/04/23 08:12:40;;;;;;;14.73;11.32;;;14.20;77.80;;;;;;4967621;28;89084;-36
2022/04/23 08:15:06;;;;;;;13.65;12.25;;;14.20;84.60;;;;;;4959523;28;91292;-35
2022/04/23 08:17:32;;;;;;;21.98;12.25;;;14.40;75.30;;;;;;4955598;28;90675;-35
2022/04/23 08:19:57;;;;;;;12.70;11.35;;;14.30;73.50;;;;;;4956288;28;90105;-33
2022/04/23 08:22:23;;;;;;;15.40;12.70;;;14.40;77.60;;;;;;4955730;28;88748;-38
2022/04/23 08:24:49;;;;;;;14.07;12.07;;;14.40;83.00;;;;;;4955692;28;90236;-35
2022/04/23 08:27:15;;;;;;;15.75;14.23;;;14.60;75.60;;;;;;4956010;28;90876;-35
2022/04/23 08:32:25;;;;;;;14.02;11.52;;;14.90;74.00;;;;;;4955425;28;88031;-38
2022/04/23 08:34:51;;;;;;;13.90;12.50;;;15.00;69.50;;;;;;4955532;28;89767;-37
2022/04/23 08:37:17;;;;;;;19.40;13.85;;;15.00;72.30;;;;;;4955690;28;95142;-38
2022/04/23 08:39:43;;;;;;;14.02;12.63;;;15.00;71.30;;;;;;4955632;28;89358;-35
2022/04/23 08:42:09;;;;;;;14.77;13.18;;;14.70;67.50;;;;;;4955741;28;89561;-34
2022/04/23 08:44:37;;;;;;;14.27;11.55;;;14.90;68.00;;;;;;4961182;28;90290;-37
2022/04/23 08:47:04;;;;;;;12.77;11.43;;;15.10;70.50;;;;;;4978460;28;90019;-35
2022/04/23 08:49:34;;;;;;;14.73;12.98;;;15.20;68.70;;;;;;4977840;28;89813;-34
2022/04/23 08:52:12;;;;;;;14.82;13.23;;;15.00;67.70;;;;;;4978478;28;90480;-37
2022/04/23 08:54:38;;;;;;;14.30;10.25;;;14.90;69.70;;;;;;4978412;28;89461;-33
2022/04/23 08:57:04;;;;;;;14.07;12.45;;;15.10;66.70;;;;;;4979212;28;89616;-37
2022/04/23 08:59:30;;;;;;;12.00;10.80;;;15.10;68.20;;;;;;4978761;28;89470;-34
2022/04/23 09:01:57;;;;;;;13.73;12.25;;;15.20;66.30;;;;;;4978278;28;88998;-34
2022/04/23 09:04:22;;;;;;;12.05;10.75;;;15.20;69.50;;;;;;4978848;28;90300;-38
2022/04/23 09:06:49;;;;;;;13.98;11.68;;;15.20;66.70;;;;;;4978364;28;89944;-38
2022/04/23 09:09:22;;;;;;;14.70;13.30;;;15.50;66.70;;;;;;4978904;28;89127;-35
2022/04/23 09:11:56;;;;;;;14.57;12.90;;;15.40;67.40;;;;;;4978600;28;88664;-36
2022/04/23 09:14:30;;;;;;;12.93;11.65;;;15.60;66.70;;;;;;4978804;28;90294;-38
2022/04/23 09:25:37;;;;;;;16.88;12.82;;;15.70;68.30;;;;;;4978309;28;90770;-35
2022/04/23 09:28:22;;;;;;;15.90;12.98;;;15.40;63.60;;;;;;4960809;28;89774;-36
2022/04/23 09:30:54;;;;;;;13.45;12.07;;;15.50;64.70;;;;;;4977864;28;89333;-38
2022/04/23 09:33:29;;;;;;;14.75;12.93;;;15.40;64.70;;;;;;4977875;28;87731;-35
2022/04/23 09:35:55;;;;;;;16.30;12.98;;;15.50;66.00;;;;;;4977964;28;90389;-38
2022/04/23 09:38:21;;;;;;;14.20;12.27;;;15.50;67.50;;;;;;4979074;28;89903;-39
2022/04/23 09:40:55;;;;;;;15.68;14.07;;;15.90;64.90;;;;;;4977896;28;90929;-36
2022/04/23 09:43:29;;;;;;;14.32;12.27;;;15.80;62.70;;;;;;4977508;28;89974;-38
2022/04/23 09:46:03;;;;;;;18.40;13.80;;;15.80;64.90;;;;;;4959856;28;90085;-38
2022/04/23 09:48:30;;;;;;;15.07;12.45;;;15.90;65.80;;;;;;4978470;28;89931;-34
2022/04/23 09:50:56;;;;;;;17.55;14.40;;;15.80;62.00;;;;;;4977997;28;89403;-38
2022/04/23 09:53:25;;;;;;;12.75;11.27;;;15.80;63.30;;;;;;4977452;28;89083;-36
2022/04/23 09:55:51;;;;;;;16.85;13.98;;;15.90;61.70;;;;;;4977318;28;91191;-35
2022/04/23 09:58:17;;;;;;;15.60;13.70;;;16.00;63.40;;;;;;4977675;28;89824;-35
2022/04/23 10:00:44;;;;;;;13.23;10.93;;;15.90;62.50;;;;;;4977624;28;89782;-35
2022/04/23 10:03:11;;;;;;;17.55;13.38;;;16.00;61.30;;;;;;4977386;28;89085;-39
2022/04/23 10:05:41;;;;;;;20.80;11.10;;;16.00;61.70;;;;;;4978232;28;89169;-35
2022/04/23 10:08:15;;;;;;;13.27;11.55;;;16.10;60.20;;;;;;4978022;28;90662;-36
2022/04/23 10:10:54;;;;;;;13.90;12.15;;;16.20;60.50;;;;;;4976970;28;90584;-35
2022/04/23 10:13:23;;;;;;;17.10;13.52;;;16.20;59.20;;;;;;4977725;28;87933;-37
2022/04/23 10:15:48;;;;;;;;;;;16.20;60.20;;;;;;4977352;28;90157;-35
2022/04/23 10:18:15;;;;;;;19.33;13.75;;;16.20;59.60;;;;;;4980268;28;90131;-34
2022/04/23 10:20:52;;;;;;;11.57;10.38;;;16.30;60.10;;;;;;4977386;28;89219;-35
2022/04/23 10:23:46;;;;;;;12.77;11.38;;;16.40;60.40;;;;;;4977071;28;89450;-35
2022/04/23 10:26:33;;;;;;;19.08;12.50;;;16.60;59.90;;;;;;4978381;28;90110;-38
2022/04/23 10:29:00;;;;;;;16.98;11.30;;;16.60;59.00;;;;;;4977953;28;89526;-37
2022/04/23 10:31:26;;;;;;;13.20;11.80;;;16.80;58.20;;;;;;4977513;28;89517;-35
2022/04/23 10:33:52;;;;;;;14.77;11.40;;;16.80;60.10;;;;;;4976399;28;89342;-36
2022/04/23 10:36:19;;;;;;;13.50;12.18;;;16.70;57.70;;;;;;4960103;28;90217;-34
2022/04/23 10:38:51;;;;;;;10.97;9.97;;;16.90;58.20;;;;;;4977683;28;89921;-36
2022/04/23 10:41:18;;;;;;;16.77;12.07;;;16.50;56.80;;;;;;4977581;28;90011;-34
2022/04/23 10:43:49;;;;;;;12.10;10.97;;;16.90;57.00;;;;;;4976847;28;88952;-37
2022/04/23 10:46:36;;;;;;;10.93;9.80;;;16.70;58.10;;;;;;4976998;28;90727;-36
2022/04/23 10:49:18;;;;;;;12.82;11.70;;;16.80;56.70;;;;;;4978111;28;89816;-38
2022/04/23 10:51:55;;;;;;;12.70;11.30;;;16.80;55.90;;;;;;4977437;28;90097;-34
2022/04/23 10:54:41;;;;;;;15.87;11.77;;;16.90;57.90;;;;;;4977573;28;89646;-35
2022/04/23 10:57:07;;;;;;;13.27;11.98;;;16.70;57.30;;;;;;4976198;28;90175;-38
2022/04/23 10:59:46;;;;;;;15.60;10.30;;;16.70;55.70;;;;;;4977357;28;90497;-33
2022/04/23 11:02:23;;;;;;;12.75;11.27;;;16.80;55.20;;;;;;4977338;28;90834;-37
2022/04/23 11:13:48;;;;;;;12.75;11.50;;;16.60;56.70;;;;;;4976255;28;89562;-37
2022/04/23 11:16:18;;;;;;;11.77;10.52;;;16.70;55.20;;;;;;4977334;28;87887;-34
2022/04/23 11:18:46;;;;;;;13.95;11.77;;;16.80;56.20;;;;;;4976957;28;90078;-34
2022/04/23 11:21:23;;;;;;;13.88;12.25;;;16.70;54.70;;;;;;4977164;28;89885;-37
2022/04/23 11:23:49;;;;;;;14.65;10.90;;;16.90;57.30;;;;;;4976874;28;89947;-35
2022/04/23 11:26:22;;;;;;;13.55;10.75;;;16.80;54.70;;;;;;4976317;28;89745;-36
2022/04/23 11:28:57;;;;;;;13.18;11.00;;;16.90;54.50;;;;;;4976759;28;90251;-38
2022/04/23 11:31:24;;;;;;;18.48;12.10;;;17.00;55.20;;;;;;4976047;28;89891;-38
2022/04/23 11:33:50;;;;;;;13.73;12.43;;;17.10;55.60;;;;;;4976124;28;90079;-38
2022/04/23 11:36:17;;;;;;;13.20;10.57;;;17.10;54.80;;;;;;4976839;28;89358;-36
2022/04/23 11:38:43;;;;;;;13.80;11.10;;;16.90;53.10;;;;;;4975916;28;89151;-36
2022/04/23 11:41:09;;;;;;;12.18;9.70;;;17.20;55.70;;;;;;4976710;28;89964;-39
2022/04/23 11:43:39;;;;;;;11.77;10.57;;;17.10;53.80;;;;;;4976670;28;90836;-38
2022/04/23 11:46:08;;;;;;;14.13;12.70;;;16.90;54.30;;;;;;4977232;28;88205;-36
2022/04/23 11:48:41;;;;;;;16.25;12.15;;;16.90;55.40;;;;;;4976579;28;90028;-33
2022/04/23 11:51:06;;;;;;;12.00;10.80;;;16.90;54.90;;;;;;4975911;28;90727;-33
2022/04/23 11:53:56;;;;;;;12.88;11.57;;;17.10;54.80;;;;;;4976270;28;91295;-39
2022/04/23 11:56:23;;;;;;;14.73;11.82;;;17.10;54.10;;;;;;4976558;28;88150;-35
2022/04/23 11:58:53;;;;;;;12.57;11.47;;;17.30;53.20;;;;;;4976144;28;90138;-37
2022/04/23 12:01:22;;;;;;;10.90;9.25;;;17.00;53.90;;;;;;4976114;28;90058;-35
2022/04/23 12:03:51;;;;;;;11.07;9.35;;;17.20;54.00;;;;;;4976001;28;90439;-38
2022/04/23 12:06:17;;;;;;;12.68;10.75;;;17.10;52.40;;;;;;4977025;28;89061;-36
2022/04/23 12:08:43;;;;;;;11.85;10.40;;;17.20;53.60;;;;;;4976299;28;88733;-36
2022/04/23 12:11:28;;;;;;;12.10;10.90;;;17.20;51.90;;;;;;4975470;28;90079;-38
2022/04/23 12:13:55;;;;;;;9.15;8.25;;;17.10;51.40;;;;;;4975347;28;89769;-38
2022/04/23 12:16:41;;;;;;;10.23;9.23;;;17.20;50.60;;;;;;4976500;28;89656;-35
2022/04/23 12:19:12;;;;;;;10.38;9.32;;;17.20;51.30;;;;;;4977138;28;90134;-35
2022/04/23 12:21:39;;;;;;;22.45;10.02;;;17.00;50.40;;;;;;4978843;28;90585;-35
2022/04/23 12:24:07;;;;;;;11.00;9.85;;;17.30;50.00;;;;;;4979333;28;89276;-38
2022/04/23 12:26:34;;;;;;;;;;;17.40;50.40;;;;;;4980163;28;89067;-36
2022/04/23 12:43:28;;;;;;;11.07;8.57;;;17.80;50.30;;;;;;4920623;28;90707;-35
2022/04/23 12:46:08;;;;;;;22.90;8.27;;;17.60;48.40;;;;;;4920060;28;90597;-37
2022/04/23 12:48:53;;;;;;;9.95;8.63;;;17.70;47.90;;;;;;4921254;28;89458;-37
2022/04/23 12:51:18;;;;;;;10.23;8.43;;;17.60;49.20;;;;;;4920975;28;90777;-35
2022/04/23 12:53:44;;;;;;;10.05;9.05;;;17.60;48.50;;;;;;4921173;28;90846;-34
2022/04/23 12:56:09;;;;;;;7.75;7.00;;;17.60;49.50;;;;;;4920546;28;89545;-35
2022/04/23 12:58:35;;;;;;;10.15;8.45;;;17.60;48.90;;;;;;4920312;28;88465;-40
2022/04/23 13:01:01;;;;;;;9.75;8.27;;;17.50;47.90;;;;;;4920751;28;90304;-38
2022/04/23 13:03:37;;;;;;;12.85;8.55;;;17.50;48.50;;;;;;4920415;28;89712;-38
2022/04/23 13:08:54;;;;;;;9.43;8.02;;;17.50;48.60;;;;;;4920770;28;89911;-37
2022/04/23 13:08:54;;;;;;;11.05;9.18;;;17.70;50.10;;;;;;4920391;28;89361;-34
2022/04/23 13:11:33;;;;;;;12.75;8.85;;;17.60;48.30;;;;;;4920366;28;90723;-37
2022/04/23 13:14:04;;;;;;;;;;;17.70;48.10;;;;;;4920694;28;91167;-35
2022/04/23 13:16:31;;;;;;;9.65;8.65;;;17.60;48.20;;;;;;4922160;28;89128;-36
2022/04/23 13:19:02;;;;;;;8.90;8.00;;;17.60;49.20;;;;;;4921631;28;88383;-38
2022/04/23 13:21:29;;;;;;;9.30;8.25;;;17.80;50.00;;;;;;4920331;28;90145;-36
2022/04/23 13:23:56;;;;;;;9.90;7.22;;;17.70;48.70;;;;;;4919644;28;90077;-34